Time;durP1;ratioP1;P1;durP2;ratioP2;P2;SDS_P1;SDS_P2;PMS_P1;PMS_P2;Temp;Humidity;BMP_temperature;BMP_pressure;BME280_temperature;BME280_humidity;BME280_pressure;Samples;Min_cycle;Max_cycle;Signal;HPM_P1;HPM_P2
2022/05/25 00:01:23;;;;;;;;;;;19.50;65.00;;;;;;5072342;28;1230;-68
2022/05/25 00:03:48;;;;;;;;;;;19.50;65.00;;;;;;5073828;28;2239;-68
2022/05/25 00:06:14;;;;;;;;;;;19.50;65.00;;;;;;5071243;28;1959;-69
2022/05/25 00:08:40;;;;;;;;;;;19.50;65.00;;;;;;5062744;28;1228;-69
2022/05/25 00:11:05;;;;;;;;;;;19.40;65.00;;;;;;5052463;28;1256;-69
2022/05/25 00:13:31;;;;;;;;;;;19.50;65.10;;;;;;5070589;28;1127;-68
2022/05/25 00:15:56;;;;;;;;;;;19.50;65.00;;;;;;5074453;28;797;-69
2022/05/25 00:18:22;;;;;;;;;;;19.40;65.00;;;;;;5066148;28;1173;-68
2022/05/25 00:20:48;;;;;;;;;;;19.50;65.00;;;;;;5053666;28;1220;-69
2022/05/25 00:23:13;;;;;;;;;;;19.50;65.10;;;;;;5052943;28;1211;-68
2022/05/25 00:25:40;;;;;;;;;;;19.40;65.00;;;;;;5059826;28;1148;-68
2022/05/25 00:28:07;;;;;;;;;;;19.40;65.00;;;;;;5057796;28;1886;-68
2022/05/25 00:30:32;;;;;;;;;;;19.40;65.00;;;;;;5070999;28;1345;-68
2022/05/25 00:32:58;;;;;;;;;;;19.40;65.00;;;;;;5073941;28;1058;-68
2022/05/25 00:35:24;;;;;;;;;;;19.50;65.10;;;;;;5074049;28;904;-69
2022/05/25 00:37:49;;;;;;;;;;;19.50;65.10;;;;;;5054944;28;1794;-68
2022/05/25 00:40:16;;;;;;;;;;;19.50;65.10;;;;;;5065133;28;1051;-68
2022/05/25 00:42:41;;;;;;;;;;;19.50;65.10;;;;;;5054495;28;1257;-68
2022/05/25 00:45:07;;;;;;;;;;;19.50;65.10;;;;;;5060250;28;2157;-68
2022/05/25 00:47:32;;;;;;;;;;;19.40;65.00;;;;;;5063306;28;1995;-68
2022/05/25 00:49:58;;;;;;;;;;;19.50;65.10;;;;;;5060640;28;1105;-68
2022/05/25 00:52:23;;;;;;;;;;;19.40;65.00;;;;;;5061907;28;1276;-68
2022/05/25 00:54:50;;;;;;;;;;;19.50;65.10;;;;;;5060937;28;1153;-68
2022/05/25 00:57:17;;;;;;;;;;;19.50;65.10;;;;;;5063436;28;1831;-69
2022/05/25 01:00:04;;;;;;;;;;;19.40;65.10;;;;;;5058416;28;1069;-69
2022/05/25 01:02:29;;;;;;;;;;;19.40;65.10;;;;;;5081301;22;2150;-76
2022/05/25 01:04:55;;;;;;;;;;;19.40;65.10;;;;;;5051230;28;1259;-73
2022/05/25 01:07:26;;;;;;;;;;;19.40;65.00;;;;;;5029565;28;1933;-75
2022/05/25 01:09:52;;;;;;;;;;;19.40;65.00;;;;;;5046675;28;1287;-73
2022/05/25 01:12:34;;;;;;;;;;;19.50;65.10;;;;;;5063375;28;1288;-74
2022/05/25 01:15:06;;;;;;;;;;;19.40;65.10;;;;;;5062203;28;1299;-73
2022/05/25 01:17:37;;;;;;;;;;;19.50;65.10;;;;;;5064795;28;1299;-73
2022/05/25 01:20:10;;;;;;;;;;;19.50;65.20;;;;;;5053674;28;1011;-73
2022/05/25 01:22:44;;;;;;;;;;;19.40;65.10;;;;;;5052547;28;1304;-73
2022/05/25 01:25:22;;;;;;;;;;;19.40;65.10;;;;;;5052824;28;868;-72
2022/05/25 01:27:48;;;;;;;;;;;19.40;65.10;;;;;;5053872;28;1910;-73
2022/05/25 01:30:22;;;;;;;;;;;19.40;65.20;;;;;;5065606;28;1191;-72
2022/05/25 01:32:48;;;;;;;;;;;19.50;65.20;;;;;;5053848;28;1217;-72
2022/05/25 01:35:13;;;;;;;;;;;19.40;65.20;;;;;;5053619;28;836;-72
2022/05/25 01:37:48;;;;;;;;;;;19.40;65.20;;;;;;5053594;28;999;-73
2022/05/25 01:40:17;;;;;;;;;;;19.40;65.20;;;;;;5052078;28;1260;-73
2022/05/25 01:42:45;;;;;;;;;;;19.40;65.20;;;;;;5069054;28;1196;-73
2022/05/25 01:45:10;;;;;;;;;;;19.40;65.20;;;;;;5068954;28;812;-73
2022/05/25 01:47:37;;;;;;;;;;;19.40;65.20;;;;;;5069143;28;1943;-73
2022/05/25 01:50:02;;;;;;;;;;;19.40;65.30;;;;;;5068736;28;868;-72
2022/05/25 01:52:30;;;;;;;;;;;19.40;65.20;;;;;;5053502;28;1272;-72
2022/05/25 01:54:56;;;;;;;;;;;19.40;65.20;;;;;;5068862;28;935;-72
2022/05/25 01:57:22;;;;;;;;;;;19.40;65.30;;;;;;5068836;28;1073;-73
2022/05/25 01:59:47;;;;;;;;;;;19.40;65.20;;;;;;5052084;28;1369;-73
2022/05/25 02:04:57;;;;;;;;;;;19.40;65.30;;;;;;5066538;28;616;-73
2022/05/25 02:07:23;;;;;;;;;;;19.40;65.30;;;;;;5053157;28;1902;-74
2022/05/25 02:09:56;;;;;;;;;;;19.40;65.30;;;;;;5051684;28;1203;-74
2022/05/25 02:12:37;;;;;;;;;;;19.40;65.30;;;;;;5060700;28;1201;-73
2022/05/25 02:15:11;;;;;;;;;;;19.40;65.30;;;;;;5071811;28;1305;-74
2022/05/25 02:17:37;;;;;;;;;;;19.40;65.30;;;;;;5071595;28;1250;-75
2022/05/25 02:20:06;;;;;;;;;;;19.40;65.30;;;;;;5052806;28;789;-74
2022/05/25 02:22:45;;;;;;;;;;;19.40;65.30;;;;;;5051778;28;1283;-75
2022/05/25 02:25:30;;;;;;;;;;;19.40;65.30;;;;;;5034907;28;1163;-73
2022/05/25 02:27:58;;;;;;;;;;;19.40;65.40;;;;;;5051984;28;1906;-74
2022/05/25 02:30:24;;;;;;;;;;;19.40;65.40;;;;;;5070604;28;1119;-75
2022/05/25 02:33:03;;;;;;;;;;;19.40;65.30;;;;;;5055232;28;1339;-75
2022/05/25 02:35:29;;;;;;;;;;;19.40;65.30;;;;;;5071592;28;860;-74
2022/05/25 02:37:56;;;;;;;;;;;19.40;65.40;;;;;;5071644;28;1057;-74
2022/05/25 02:40:22;;;;;;;;;;;19.40;65.40;;;;;;5054664;28;1151;-75
2022/05/25 02:42:47;;;;;;;;;;;19.40;65.40;;;;;;5072835;28;1283;-74
2022/05/25 02:45:13;;;;;;;;;;;19.40;65.30;;;;;;5071582;28;1206;-74
2022/05/25 02:47:39;;;;;;;;;;;19.40;65.40;;;;;;5071793;28;1902;-74
2022/05/25 02:50:05;;;;;;;;;;;19.40;65.40;;;;;;5074851;28;785;-75
2022/05/25 02:52:30;;;;;;;;;;;19.40;65.40;;;;;;5075869;28;1247;-73
2022/05/25 02:54:56;;;;;;;;;;;19.40;65.40;;;;;;5058933;28;1171;-72
2022/05/25 02:57:21;;;;;;;;;;;19.40;65.40;;;;;;5075662;28;793;-73
2022/05/25 02:59:47;;;;;;;;;;;19.40;65.40;;;;;;5075499;28;804;-73
2022/05/25 03:02:12;;;;;;;;;;;19.40;65.40;;;;;;5075164;28;1324;-72
2022/05/25 03:04:38;;;;;;;;;;;19.40;65.40;;;;;;5075493;28;1011;-73
2022/05/25 03:07:03;;;;;;;;;;;19.40;65.40;;;;;;5075446;28;1906;-74
2022/05/25 03:09:29;;;;;;;;;;;19.40;65.40;;;;;;5075511;28;1062;-73
2022/05/25 03:11:54;;;;;;;;;;;19.40;65.40;;;;;;5075119;28;1259;-73
2022/05/25 03:14:20;;;;;;;;;;;19.40;65.40;;;;;;5075186;28;884;-73
2022/05/25 03:16:45;;;;;;;;;;;19.40;65.40;;;;;;5075468;28;1046;-74
2022/05/25 03:19:10;;;;;;;;;;;19.40;65.40;;;;;;5063048;28;1129;-74
2022/05/25 03:21:36;;;;;;;;;;;19.40;65.50;;;;;;5054708;28;1317;-74
2022/05/25 03:24:01;;;;;;;;;;;19.40;65.50;;;;;;5056312;28;899;-74
2022/05/25 03:26:27;;;;;;;;;;;19.40;65.40;;;;;;5054856;28;1898;-74
2022/05/25 03:28:52;;;;;;;;;;;19.40;65.40;;;;;;5062357;28;1135;-73
2022/05/25 03:31:18;;;;;;;;;;;19.40;65.40;;;;;;5075788;28;1205;-73
2022/05/25 03:33:43;;;;;;;;;;;19.40;65.50;;;;;;5074842;28;1053;-73
2022/05/25 03:36:08;;;;;;;;;;;19.40;65.50;;;;;;5075868;28;768;-73
2022/05/25 03:38:34;;;;;;;;;;;19.40;65.50;;;;;;5074766;28;810;-74
2022/05/25 03:40:59;;;;;;;;;;;19.40;65.50;;;;;;5091642;28;1202;-75
2022/05/25 03:43:27;;;;;;;;;;;19.40;65.40;;;;;;5074735;28;1267;-74
2022/05/25 03:45:53;;;;;;;;;;;19.40;65.50;;;;;;5074732;28;896;-74
2022/05/25 03:48:18;;;;;;;;;;;19.40;65.50;;;;;;5075724;28;1890;-74
2022/05/25 03:50:43;;;;;;;;;;;19.40;65.50;;;;;;5075590;28;1034;-74
2022/05/25 03:53:10;;;;;;;;;;;19.40;65.50;;;;;;5075710;28;1157;-74
2022/05/25 03:55:35;;;;;;;;;;;19.40;65.50;;;;;;5074708;28;1035;-74
2022/05/25 03:58:01;;;;;;;;;;;19.40;65.50;;;;;;5074472;28;1221;-73
2022/05/25 04:00:27;;;;;;;;;;;19.40;65.50;;;;;;5073960;28;758;-75
2022/05/25 04:02:52;;;;;;;;;;;19.40;65.50;;;;;;5074241;28;1299;-75
2022/05/25 04:05:18;;;;;;;;;;;19.40;65.50;;;;;;5074122;28;952;-73
2022/05/25 04:07:44;;;;;;;;;;;19.40;65.50;;;;;;5074340;28;1902;-73
2022/05/25 04:10:12;;;;;;;;;;;19.40;65.50;;;;;;5074171;28;1062;-73
2022/05/25 04:12:38;;;;;;;;;;;19.40;65.50;;;;;;5047898;28;1366;-73
2022/05/25 04:15:04;;;;;;;;;;;19.40;65.50;;;;;;5055514;28;864;-73
2022/05/25 04:17:31;;;;;;;;;;;19.40;65.50;;;;;;5054095;28;913;-73
2022/05/25 04:19:56;;;;;;;;;;;19.40;65.50;;;;;;5073237;28;1119;-73
2022/05/25 04:22:22;;;;;;;;;;;19.40;65.50;;;;;;5074026;28;1271;-73
2022/05/25 04:24:47;;;;;;;;;;;19.40;65.50;;;;;;5074073;28;881;-73
2022/05/25 04:27:13;;;;;;;;;;;19.40;65.60;;;;;;5073953;28;1914;-73
2022/05/25 04:29:38;;;;;;;;;;;19.40;65.60;;;;;;5073837;28;997;-73
2022/05/25 04:32:04;;;;;;;;;;;19.40;65.60;;;;;;5073734;28;1203;-73
2022/05/25 04:34:29;;;;;;;;;;;19.40;65.60;;;;;;5073690;28;1073;-73
2022/05/25 04:36:55;;;;;;;;;;;19.40;65.60;;;;;;5075098;28;916;-74
2022/05/25 04:39:20;;;;;;;;;;;19.40;65.60;;;;;;5073575;28;1271;-75
2022/05/25 04:41:46;;;;;;;;;;;19.40;65.60;;;;;;5073614;28;1291;-75
2022/05/25 04:44:11;;;;;;;;;;;19.40;65.60;;;;;;5072005;28;2219;-69
2022/05/25 04:46:37;;;;;;;;;;;19.40;65.60;;;;;;5068104;28;1960;-70
2022/05/25 04:49:02;;;;;;;;;;;19.40;65.60;;;;;;5065346;28;1095;-71
2022/05/25 04:51:28;;;;;;;;;;;19.40;65.60;;;;;;5054773;28;1550;-70
2022/05/25 04:53:53;;;;;;;;;;;19.40;65.60;;;;;;5054533;28;859;-69
2022/05/25 04:59:03;;;;;;;;;;;19.40;65.60;;;;;;5054487;28;611;-70
2022/05/25 05:01:30;;;;;;;;;;;19.40;65.60;;;;;;5070908;28;1638;-69
2022/05/25 05:03:56;;;;;;;;;;;19.40;65.60;;;;;;5071739;28;972;-69
2022/05/25 05:06:21;;;;;;;;;;;19.40;65.60;;;;;;5071838;28;1910;-70
2022/05/25 05:08:46;;;;;;;;;;;19.40;65.60;;;;;;5072458;28;974;-69
2022/05/25 05:11:13;;;;;;;;;;;19.40;65.60;;;;;;5070950;28;1357;-71
2022/05/25 05:13:38;;;;;;;;;;;19.40;65.60;;;;;;5073259;28;975;-71
2022/05/25 05:16:05;;;;;;;;;;;19.40;65.60;;;;;;5071736;28;1361;-71
2022/05/25 05:18:30;;;;;;;;;;;19.40;65.60;;;;;;5071592;28;1199;-70
2022/05/25 05:20:55;;;;;;;;;;;19.40;65.60;;;;;;5070773;28;892;-70
2022/05/25 05:23:21;;;;;;;;;;;19.40;65.60;;;;;;5072233;28;1260;-70
2022/05/25 05:25:46;;;;;;;;;;;19.40;65.60;;;;;;5088244;28;1308;-71
2022/05/25 05:28:15;;;;;;;;;;;19.40;65.60;;;;;;5072560;28;1890;-71
2022/05/25 05:30:50;;;;;;;;;;;19.40;65.60;;;;;;5050623;28;842;-71
2022/05/25 05:33:16;;;;;;;;;;;19.40;65.60;;;;;;5051093;28;1370;-73
2022/05/25 05:35:42;;;;;;;;;;;19.40;65.60;;;;;;5051920;28;984;-73
2022/05/25 05:38:07;;;;;;;;;;;19.40;65.60;;;;;;5035318;28;1287;-71
2022/05/25 05:40:33;;;;;;;;;;;19.40;65.60;;;;;;5051082;28;1051;-72
2022/05/25 05:42:59;;;;;;;;;;;19.40;65.60;;;;;;5052141;28;1287;-72
2022/05/25 05:45:25;;;;;;;;;;;19.40;65.70;;;;;;5052187;28;955;-72
2022/05/25 05:47:55;;;;;;;;;;;19.40;65.60;;;;;;5052342;28;1898;-71
2022/05/25 05:50:21;;;;;;;;;;;19.40;65.70;;;;;;5051930;28;1011;-71
2022/05/25 05:52:47;;;;;;;;;;;19.40;65.60;;;;;;5052352;28;1193;-71
2022/05/25 05:55:12;;;;;;;;;;;19.40;65.70;;;;;;5053869;28;2012;-71
2022/05/25 05:57:38;;;;;;;;;;;19.40;65.60;;;;;;5060495;28;1267;-71
2022/05/25 06:00:04;;;;;;;;;;;19.40;65.70;;;;;;5052056;28;817;-72
2022/05/25 06:02:30;;;;;;;;;;;19.40;65.70;;;;;;5052009;28;1297;-72
2022/05/25 06:04:55;;;;;;;;;;;19.40;65.70;;;;;;5052045;28;951;-71
2022/05/25 06:07:20;;;;;;;;;;;19.40;65.70;;;;;;5053202;28;1902;-72
2022/05/25 06:09:46;;;;;;;;;;;19.40;65.70;;;;;;5052987;28;1006;-72
2022/05/25 06:12:14;;;;;;;;;;;19.40;65.60;;;;;;5058905;28;1363;-72
2022/05/25 06:14:40;;;;;;;;;;;19.40;65.70;;;;;;5072040;28;911;-73
2022/05/25 06:19:49;;;;;;;;;;;19.40;65.70;;;;;;5070718;28;1789;-72
2022/05/25 06:22:15;;;;;;;;;;;19.40;65.70;;;;;;5071498;28;1244;-74
2022/05/25 06:24:44;;;;;;;;;;;19.40;65.70;;;;;;5067154;28;1066;-74
2022/05/25 06:27:11;;;;;;;;;;;19.40;65.70;;;;;;5059838;28;1910;-70
2022/05/25 06:29:37;;;;;;;;;;;19.40;65.80;;;;;;5060247;28;1714;-67
2022/05/25 06:32:04;;;;;;;;;;;19.40;65.70;;;;;;5053730;28;1243;-71
2022/05/25 06:34:29;;;;;;;;;;;19.40;65.70;;;;;;5070819;28;864;-72
2022/05/25 06:36:55;;;;;;;;;;;19.40;65.70;;;;;;5070736;28;963;-69
2022/05/25 06:39:20;;;;;;;;;;;19.40;65.70;;;;;;5071784;28;1025;-69
2022/05/25 06:41:46;;;;;;;;;;;19.40;65.70;;;;;;5087453;28;1282;-73
2022/05/25 06:44:11;;;;;;;;;;;19.40;65.70;;;;;;5088401;28;1139;-72
2022/05/25 06:46:37;;;;;;;;;;;19.40;65.70;;;;;;5068516;28;2165;-74
2022/05/25 06:49:02;;;;;;;;;;;19.40;65.70;;;;;;5066680;28;1590;-74
2022/05/25 06:51:28;;;;;;;;;;;19.40;65.70;;;;;;5062860;28;1561;-74
2022/05/25 06:53:54;;;;;;;;;;;19.40;65.70;;;;;;5071632;28;820;-74
2022/05/25 06:56:20;;;;;;;;;;;19.40;65.70;;;;;;5054404;28;1333;-73
2022/05/25 06:58:45;;;;;;;;;;;19.40;65.80;;;;;;5062427;28;2266;-76
2022/05/25 07:01:10;;;;;;;;;;;19.40;65.70;;;;;;5054464;28;1318;-76
2022/05/25 07:03:38;;;;;;;;;;;19.40;65.80;;;;;;5072099;23;3826;-68
2022/05/25 07:06:06;;;;;;;;;;;19.40;65.80;;;;;;5060658;28;1918;-68
2022/05/25 07:08:32;;;;;;;;;;;19.40;65.80;;;;;;5059766;28;1161;-68
2022/05/25 07:10:57;;;;;;;;;;;19.40;65.80;;;;;;5052643;28;714;-68
2022/05/25 07:13:23;;;;;;;;;;;19.40;65.80;;;;;;5068139;28;1259;-68
2022/05/25 07:15:49;;;;;;;;;;;19.40;65.80;;;;;;5067528;28;1132;-68
2022/05/25 07:18:14;;;;;;;;;;;19.40;65.80;;;;;;5074015;28;1105;-67
2022/05/25 07:20:39;;;;;;;;;;;19.40;65.80;;;;;;5051094;28;1044;-67
2022/05/25 07:23:05;;;;;;;;;;;19.40;65.80;;;;;;5051161;28;1218;-68
2022/05/25 07:25:30;;;;;;;;;;;19.40;65.80;;;;;;5052888;28;880;-68
2022/05/25 07:27:56;;;;;;;;;;;19.40;65.80;;;;;;5052408;28;1910;-69
2022/05/25 07:30:21;;;;;;;;;;;19.40;65.80;;;;;;5050480;28;1155;-69
2022/05/25 07:32:47;;;;;;;;;;;19.40;65.80;;;;;;5052257;28;1200;-70
2022/05/25 07:35:13;;;;;;;;;;;19.40;65.80;;;;;;5052605;28;845;-71
2022/05/25 07:37:39;;;;;;;;;;;19.40;65.80;;;;;;5054652;28;1046;-71
2022/05/25 07:40:12;;;;;;;;;;;19.40;65.80;;;;;;5054820;28;817;-71
2022/05/25 07:42:38;;;;;;;;;;;19.40;65.80;;;;;;5054697;28;1280;-70
2022/05/25 07:45:04;;;;;;;;;;;19.40;65.80;;;;;;5054827;28;845;-69
2022/05/25 07:47:29;;;;;;;;;;;19.40;65.80;;;;;;5054511;28;1890;-67
2022/05/25 07:49:55;;;;;;;;;;;19.40;65.80;;;;;;5055538;28;1023;-66
2022/05/25 07:52:20;;;;;;;;;;;19.40;65.80;;;;;;5060587;28;1087;-68
2022/05/25 07:54:46;;;;;;;;;;;19.40;65.80;;;;;;5068151;28;1310;-68
2022/05/25 07:57:11;;;;;;;;;;;19.40;65.80;;;;;;5075749;28;831;-69
2022/05/25 07:59:37;;;;;;;;;;;19.40;65.80;;;;;;5075577;28;930;-68
2022/05/25 08:07:33;;;;;;;;;;;19.40;65.80;;;;;;5074442;28;1959;-68
2022/05/25 08:10:05;;;;;;;;;;;19.40;65.80;;;;;;5074420;28;891;-68
2022/05/25 08:12:31;;;;;;;;;;;19.40;65.80;;;;;;5065008;28;1294;-68
2022/05/25 08:14:56;;;;;;;;;;;19.40;65.80;;;;;;5055737;28;809;-70
2022/05/25 08:17:22;;;;;;;;;;;19.40;65.80;;;;;;5053885;28;1203;-68
2022/05/25 08:19:47;;;;;;;;;;;19.40;65.80;;;;;;5053967;28;1171;-67
2022/05/25 08:22:13;;;;;;;;;;;19.40;65.90;;;;;;5055154;28;744;-68
2022/05/25 08:24:38;;;;;;;;;;;19.40;65.90;;;;;;5053944;28;1192;-68
2022/05/25 08:27:04;;;;;;;;;;;19.40;65.90;;;;;;5054527;28;1976;-67
2022/05/25 08:29:29;;;;;;;;;;;19.40;65.90;;;;;;5054808;28;1037;-68
2022/05/25 08:31:58;;;;;;;;;;;19.40;65.90;;;;;;5054697;28;1098;-68
2022/05/25 08:34:23;;;;;;;;;;;19.40;65.90;;;;;;5061668;28;1286;-68
2022/05/25 08:36:49;;;;;;;;;;;19.40;65.90;;;;;;5066662;28;1268;-68
2022/05/25 08:39:14;;;;;;;;;;;19.40;65.90;;;;;;5073632;28;931;-68
2022/05/25 08:41:40;;;;;;;;;;;19.40;65.90;;;;;;5074490;28;873;-67
2022/05/25 08:44:07;;;;;;;;;;;19.40;65.90;;;;;;5053367;28;2286;-67
2022/05/25 08:46:32;;;;;;;;;;;19.40;65.90;;;;;;5085501;28;1886;-67
2022/05/25 08:48:59;;;;;;;;;;;19.40;65.80;;;;;;5054705;28;856;-67
2022/05/25 08:51:27;;;;;;;;;;;19.40;65.80;;;;;;5054724;28;1046;-67
2022/05/25 08:53:53;;;;;;;;;;;19.40;65.90;;;;;;5053391;28;1203;-67
2022/05/25 08:56:29;;;;;;;;;;;19.40;65.90;;;;;;5054667;28;828;-67
2022/05/25 08:59:11;;;;;;;;;;;19.40;65.80;;;;;;5054490;28;895;-68
2022/05/25 09:01:39;;;;;;;;;;;19.40;65.90;;;;;;5054113;28;1192;-69
2022/05/25 09:04:08;;;;;;;;;;;19.40;65.80;;;;;;5053280;28;1222;-68
2022/05/25 09:06:39;;;;;;;;;;;19.40;65.80;;;;;;5052236;28;2233;-68
2022/05/25 09:09:10;;;;;;;;;;;19.40;65.80;;;;;;5064936;28;1125;-69
2022/05/25 09:11:56;;;;;;;;;;;19.40;65.80;;;;;;5064310;28;1129;-69
2022/05/25 09:14:29;;;;;;;;;;;19.40;65.80;;;;;;5053848;28;1302;-69
2022/05/25 09:16:54;;;;;;;;;;;19.40;65.80;;;;;;5053098;28;1014;-68
2022/05/25 09:19:21;;;;;;;;;;;19.40;65.80;;;;;;5054100;28;1178;-69
2022/05/25 09:21:51;;;;;;;;;;;19.40;65.80;;;;;;5052530;28;1124;-69
2022/05/25 09:24:18;;;;;;;;;;;19.40;65.80;;;;;;5053069;28;1192;-69
2022/05/25 09:26:43;;;;;;;;;;;19.40;65.80;;;;;;5052732;28;1902;-68
2022/05/25 09:29:09;;;;;;;;;;;19.40;65.80;;;;;;5052567;28;1110;-68
2022/05/25 09:31:40;;;;;;;;;;;19.40;65.80;;;;;;5052382;28;1377;-69
2022/05/25 09:34:07;;;;;;;;;;;19.40;65.80;;;;;;5052948;28;1243;-69
2022/05/25 09:36:39;;;;;;;;;;;19.40;65.80;;;;;;5052514;28;836;-69
2022/05/25 09:39:06;;;;;;;;;;;19.40;65.80;;;;;;5052491;28;1092;-68
2022/05/25 09:41:32;;;;;;;;;;;19.40;65.80;;;;;;5053795;28;1073;-68
2022/05/25 09:43:58;;;;;;;;;;;19.40;65.70;;;;;;5052419;28;1268;-70
2022/05/25 09:46:27;;;;;;;;;;;19.40;65.80;;;;;;5053802;28;1906;-69
2022/05/25 09:48:58;;;;;;;;;;;19.40;65.80;;;;;;5048566;28;1849;-69
2022/05/25 09:51:34;;;;;;;;;;;19.40;65.70;;;;;;5052203;28;1893;-69
2022/05/25 09:54:19;;;;;;;;;;;19.40;65.80;;;;;;5053572;28;1395;-69
2022/05/25 09:56:44;;;;;;;;;;;19.40;65.70;;;;;;5057140;28;1609;-68
2022/05/25 09:59:26;;;;;;;;;;;19.40;65.80;;;;;;5054491;28;1326;-69
2022/05/25 10:01:52;;;;;;;;;;;19.40;65.80;;;;;;5058157;28;1051;-68
2022/05/25 10:04:33;;;;;;;;;;;19.40;65.70;;;;;;5033594;28;1958;-68
2022/05/25 10:06:58;;;;;;;;;;;19.40;65.80;;;;;;5031965;28;1914;-69
2022/05/25 10:09:25;;;;;;;;;;;19.40;65.80;;;;;;5032491;28;1019;-68
2022/05/25 10:11:51;;;;;;;;;;;19.40;65.70;;;;;;5037473;28;1171;-68
2022/05/25 10:14:22;;;;;;;;;;;19.40;65.70;;;;;;5070967;28;1235;-68
2022/05/25 10:16:47;;;;;;;;;;;19.40;65.80;;;;;;5059448;28;1822;-67
2022/05/25 10:19:14;;;;;;;;;;;19.40;65.80;;;;;;5064690;28;1200;-67
2022/05/25 10:21:40;;;;;;;;;;;19.40;65.70;;;;;;5070148;28;1086;-68
2022/05/25 10:24:25;;;;;;;;;;;19.40;65.70;;;;;;5056377;28;1891;-68
2022/05/25 10:26:51;;;;;;;;;;;19.40;65.70;;;;;;5061294;28;1906;-69
2022/05/25 10:38:07;;;;;;;;;;;19.50;65.80;;;;;;5052855;28;695;-68
2022/05/25 10:40:32;;;;;;;;;;;19.40;65.80;;;;;;5052542;28;825;-68
2022/05/25 10:42:58;;;;;;;;;;;19.50;65.80;;;;;;5051873;28;1987;-68
2022/05/25 10:45:32;;;;;;;;;;;19.40;65.70;;;;;;5051470;28;1187;-69
2022/05/25 10:48:07;;;;;;;;;;;19.50;65.80;;;;;;5051873;28;1969;-68
2022/05/25 10:50:36;;;;;;;;;;;19.50;65.80;;;;;;5051328;28;1194;-69
2022/05/25 10:53:01;;;;;;;;;;;19.40;65.80;;;;;;5052609;28;1218;-68
2022/05/25 10:55:28;;;;;;;;;;;19.50;65.80;;;;;;5052729;28;820;-69
2022/05/25 10:58:03;;;;;;;;;;;19.40;65.70;;;;;;5051452;28;980;-68
2022/05/25 11:00:55;;;;;;;;;;;19.40;65.70;;;;;;5052538;28;1006;-69
2022/05/25 11:03:23;;;;;;;;;;;19.40;65.80;;;;;;5029198;28;1270;-68
2022/05/25 11:06:04;;;;;;;;;;;19.40;65.70;;;;;;5052593;28;979;-68
2022/05/25 11:08:32;;;;;;;;;;;19.40;65.70;;;;;;5051445;28;1902;-68
2022/05/25 11:11:03;;;;;;;;;;;19.50;65.80;;;;;;5055161;28;812;-69
2022/05/25 11:13:36;;;;;;;;;;;19.50;65.80;;;;;;5055238;28;1218;-68
2022/05/25 11:16:20;;;;;;;;;;;19.50;65.80;;;;;;5055344;28;1042;-69
2022/05/25 11:18:47;;;;;;;;;;;19.50;65.80;;;;;;5055171;28;1226;-69
2022/05/25 11:21:22;;;;;;;;;;;19.50;65.80;;;;;;5056195;28;911;-68
2022/05/25 11:23:50;;;;;;;;;;;19.40;65.70;;;;;;5056227;28;1215;-68
2022/05/25 11:26:33;;;;;;;;;;;19.50;65.80;;;;;;5056270;28;1902;-68
2022/05/25 11:29:08;;;;;;;;;;;19.40;65.70;;;;;;5056057;28;1118;-67
2022/05/25 11:31:45;;;;;;;;;;;19.40;65.70;;;;;;5055981;28;1050;-67
2022/05/25 11:34:14;;;;;;;;;;;19.50;65.80;;;;;;5054851;28;1203;-68
2022/05/25 11:36:58;;;;;;;;;;;19.50;65.80;;;;;;5056130;28;904;-68
2022/05/25 11:39:42;;;;;;;;;;;19.50;65.80;;;;;;5055985;28;824;-68
2022/05/25 11:42:12;;;;;;;;;;;19.40;65.70;;;;;;5055738;28;982;-67
2022/05/25 11:44:49;;;;;;;;;;;19.50;65.80;;;;;;5055877;28;1185;-68
2022/05/25 11:47:33;;;;;;;;;;;19.40;65.70;;;;;;5056575;28;1958;-67
2022/05/25 11:50:18;;;;;;;;;;;19.50;65.80;;;;;;5055811;28;939;-68
2022/05/25 11:52:50;;;;;;;;;;;19.50;65.90;;;;;;5054578;28;1280;-68
2022/05/25 11:55:20;;;;;;;;;;;19.50;65.80;;;;;;5055667;28;888;-67
2022/05/25 11:58:04;;;;;;;;;;;19.50;65.80;;;;;;5055693;28;884;-68
2022/05/25 12:00:34;;;;;;;;;;;19.50;65.80;;;;;;5055253;28;955;-68
2022/05/25 12:02:59;;;;;;;;;;;19.50;65.90;;;;;;5054134;28;1646;-68
2022/05/25 12:05:32;;;;;;;;;;;19.40;65.80;;;;;;5055847;28;809;-68
2022/05/25 12:08:03;;;;;;;;;;;19.50;65.80;;;;;;5037698;28;1922;-68
2022/05/25 12:10:32;;;;;;;;;;;19.50;65.80;;;;;;5054996;28;900;-68
2022/05/25 12:13:00;;;;;;;;;;;19.50;65.90;;;;;;5066531;28;1361;-68
2022/05/25 12:15:27;;;;;;;;;;;19.50;65.80;;;;;;5074145;28;820;-68
2022/05/25 12:17:59;;;;;;;;;;;19.40;65.80;;;;;;5071807;28;1220;-67
2022/05/25 12:20:27;;;;;;;;;;;19.40;65.80;;;;;;5055070;28;805;-68
2022/05/25 12:22:52;;;;;;;;;;;19.50;65.80;;;;;;5054210;28;1215;-68
2022/05/25 12:25:18;;;;;;;;;;;19.40;65.80;;;;;;5054095;28;821;-68
2022/05/25 12:27:44;;;;;;;;;;;19.40;65.80;;;;;;5037345;28;1909;-68
2022/05/25 12:30:11;;;;;;;;;;;19.50;65.80;;;;;;5053537;28;1125;-68
2022/05/25 12:32:38;;;;;;;;;;;19.40;65.70;;;;;;5052334;28;1823;-68
2022/05/25 12:35:03;;;;;;;;;;;19.50;65.90;;;;;;5054775;28;1070;-68
2022/05/25 12:37:42;;;;;;;;;;;19.40;65.80;;;;;;5054691;28;1134;-68
2022/05/25 12:40:11;;;;;;;;;;;19.40;65.80;;;;;;5053539;28;1087;-68
2022/05/25 12:42:37;;;;;;;;;;;19.50;65.80;;;;;;5053608;28;1240;-68
2022/05/25 12:50:48;;;;;;;;;;;19.50;65.80;;;;;;5054475;28;690;-68
2022/05/25 12:53:32;;;;;;;;;;;19.50;65.80;;;;;;5053373;28;1269;-68
2022/05/25 12:56:01;;;;;;;;;;;19.50;65.80;;;;;;5053446;28;2208;-67
2022/05/25 12:58:33;;;;;;;;;;;19.40;65.80;;;;;;5082448;28;1935;-68
2022/05/25 13:01:06;;;;;;;;;;;19.50;65.90;;;;;;5053073;28;1106;-69
2022/05/25 13:03:37;;;;;;;;;;;19.40;65.80;;;;;;5077636;22;1927;-69
2022/05/25 13:06:03;;;;;;;;;;;19.50;65.90;;;;;;5073381;28;1023;-69
2022/05/25 13:08:47;;;;;;;;;;;19.50;65.80;;;;;;5055969;28;1927;-69
2022/05/25 13:11:28;;;;;;;;;;;19.50;65.80;;;;;;5054676;28;1148;-70
2022/05/25 13:13:54;;;;;;;;;;;19.50;66.60;;;;;;5038076;28;1249;-68
2022/05/25 13:16:38;;;;;;;;;;;19.50;65.80;;;;;;5052515;28;820;-69
2022/05/25 13:19:22;;;;;;;;;;;19.50;65.80;;;;;;5064684;28;1138;-71
2022/05/25 13:22:02;;;;;;;;;;;19.50;65.80;;;;;;5072816;28;808;-70
2022/05/25 13:24:41;;;;;;;;;;;19.50;65.80;;;;;;5072611;28;1239;-71
2022/05/25 13:27:21;;;;;;;;;;;19.40;65.80;;;;;;5073230;28;1957;-72
2022/05/25 13:29:56;;;;;;;;;;;19.50;65.90;;;;;;5071148;28;1154;-71
2022/05/25 13:32:32;;;;;;;;;;;19.50;65.80;;;;;;5051363;28;1076;-70
2022/05/25 13:34:58;;;;;;;;;;;19.50;65.80;;;;;;5053841;28;1318;-72
2022/05/25 13:37:25;;;;;;;;;;;19.50;65.80;;;;;;5051384;28;1066;-70
2022/05/25 13:39:50;;;;;;;;;;;19.50;65.90;;;;;;5052471;28;848;-70
2022/05/25 13:42:16;;;;;;;;;;;19.50;65.80;;;;;;5052045;28;1352;-69
2022/05/25 13:44:43;;;;;;;;;;;19.50;65.80;;;;;;5064260;28;1758;-67
2022/05/25 13:47:08;;;;;;;;;;;19.50;65.80;;;;;;5063190;28;1951;-68
2022/05/25 13:49:35;;;;;;;;;;;19.50;65.90;;;;;;5053191;28;1447;-68
2022/05/25 13:52:13;;;;;;;;;;;19.50;65.90;;;;;;5072913;28;801;-71
2022/05/25 13:54:39;;;;;;;;;;;19.50;65.90;;;;;;5073075;28;1195;-71
2022/05/25 13:57:05;;;;;;;;;;;19.50;65.90;;;;;;5070543;28;789;-70
2022/05/25 13:59:34;;;;;;;;;;;19.50;65.90;;;;;;5056288;28;1112;-70
2022/05/25 14:02:25;;;;;;;;;;;19.50;65.90;;;;;;5052144;28;1042;-70
2022/05/25 14:04:51;;;;;;;;;;;19.50;65.90;;;;;;5051683;28;1323;-71
2022/05/25 14:07:27;;;;;;;;;;;19.50;65.90;;;;;;5051893;28;1906;-70
2022/05/25 14:12:38;;;;;;;;;;;19.40;65.90;;;;;;5061996;28;1115;-69
2022/05/25 14:15:03;;;;;;;;;;;19.50;65.90;;;;;;5051138;28;1254;-70
2022/05/25 14:17:30;;;;;;;;;;;19.50;65.90;;;;;;5052568;28;908;-69
2022/05/25 14:19:58;;;;;;;;;;;19.50;65.90;;;;;;5070738;28;1982;-71
2022/05/25 14:22:25;;;;;;;;;;;19.50;65.90;;;;;;5064760;28;1138;-71
2022/05/25 14:24:51;;;;;;;;;;;19.50;65.90;;;;;;5060869;28;1206;-71
2022/05/25 14:27:23;;;;;;;;;;;19.50;65.90;;;;;;5034392;28;1930;-72
2022/05/25 14:29:49;;;;;;;;;;;19.50;66.00;;;;;;5065358;28;1126;-71
2022/05/25 14:32:15;;;;;;;;;;;19.50;65.90;;;;;;5070472;28;828;-72
2022/05/25 14:34:42;;;;;;;;;;;19.50;65.90;;;;;;5069876;28;1841;-71
2022/05/25 14:37:07;;;;;;;;;;;19.40;65.90;;;;;;5063342;28;1398;-71
2022/05/25 14:39:33;;;;;;;;;;;19.50;66.00;;;;;;5049927;28;1955;-71
2022/05/25 14:42:07;;;;;;;;;;;19.50;66.00;;;;;;5057231;28;1092;-70
2022/05/25 14:44:51;;;;;;;;;;;19.40;65.90;;;;;;5054345;28;2032;-69
2022/05/25 14:47:21;;;;;;;;;;;19.40;65.90;;;;;;5060562;28;2060;-71
2022/05/25 14:50:06;;;;;;;;;;;19.40;65.90;;;;;;5057052;28;1084;-70
2022/05/25 14:52:32;;;;;;;;;;;19.40;65.90;;;;;;5053662;28;1174;-70
2022/05/25 14:55:10;;;;;;;;;;;19.40;65.90;;;;;;5063554;28;2304;-70
2022/05/25 14:57:35;;;;;;;;;;;19.50;66.00;;;;;;5060753;28;1546;-70
2022/05/25 15:00:01;;;;;;;;;;;19.40;66.00;;;;;;5062326;28;1478;-71
2022/05/25 15:02:34;;;;;;;;;;;19.40;65.90;;;;;;5061168;28;1514;-71
2022/05/25 15:04:59;;;;;;;;;;;19.50;66.00;;;;;;5052043;28;1211;-71
2022/05/25 15:07:25;;;;;;;;;;;19.50;66.00;;;;;;5051725;28;1902;-71
2022/05/25 15:09:51;;;;;;;;;;;19.40;66.00;;;;;;5062288;28;1851;-71
2022/05/25 15:12:23;;;;;;;;;;;19.40;65.90;;;;;;5062006;28;1511;-71